createdAt,value
2023-01-11T00:02:03.278Z,144.65147
2023-01-11T00:07:04.904Z,139.55556
2023-01-11T00:12:06.507Z,135.30435
2023-01-11T00:17:08.177Z,133.53846
2023-01-11T00:22:09.871Z,132.3792
2023-01-11T00:27:11.624Z,131.23404
2023-01-11T00:32:13.328Z,144
2023-01-11T00:37:15.061Z,166.38267
2023-01-11T00:42:16.730Z,143.35275
2023-01-11T00:47:18.384Z,135.30435
2023-01-11T00:52:20.077Z,128.98498
2023-01-11T00:57:21.992Z,125.17647
2023-01-11T01:02:23.655Z,131.80488
2023-01-11T01:07:25.468Z,132.95706
2023-01-11T01:12:27.325Z,132.3792
2023-01-11T01:17:28.960Z,125.17647
2023-01-11T01:22:30.620Z,124.64516
2023-01-11T01:27:32.235Z,125.17647
2023-01-11T01:32:33.897Z,121.52161
2023-01-11T01:37:35.550Z,126.78932
2023-01-11T01:42:37.188Z,131.23404
2023-01-11T01:47:39.204Z,133.53846
2023-01-11T01:52:40.806Z,134.12346
2023-01-11T01:57:42.447Z,136.5
2023-01-11T02:02:44.263Z,126.24852
2023-01-11T02:07:45.913Z,121.52161
2023-01-11T02:12:47.745Z,117.52113
2023-01-11T02:17:49.386Z,119.49858
2023-01-11T02:22:51.023Z,123.59184
2023-01-11T02:27:52.654Z,122.03468
2023-01-11T02:32:54.294Z,117.52113
2023-01-11T02:37:55.898Z,115.11111
2023-01-11T02:42:57.605Z,112.76712
2023-01-11T02:47:59.237Z,115.11111
2023-01-11T02:53:00.872Z,117.52113
2023-01-11T02:58:02.525Z,116.54902
2023-01-11T03:03:04.204Z,116.54902
2023-01-11T03:08:05.826Z,121.01149
2023-01-11T03:13:07.570Z,120.5043
2023-01-11T03:18:09.257Z,134.12346
2023-01-11T03:23:11.100Z,183.68872
2023-01-11T03:28:12.738Z,258.28571
2023-01-11T03:33:14.382Z,250.46766
2023-01-11T03:38:15.979Z,229.18519
2023-01-11T03:43:17.638Z,215.36564
2023-01-11T03:48:19.290Z,159.38462
2023-01-11T03:53:20.899Z,161.66784
2023-01-11T03:58:22.583Z,187.47826
2023-01-11T04:03:26.972Z,215.36564
2023-01-11T04:08:28.903Z,219
2023-01-11T04:13:30.560Z,222.73303
2023-01-11T04:18:32.275Z,211.82609
2023-01-11T04:23:33.951Z,189.41833
2023-01-11T04:28:35.675Z,230.51163
2023-01-11T04:33:37.365Z,407.15789
2023-01-11T04:38:38.994Z,620.92308
2023-01-11T04:43:40.687Z,336.35669
2023-01-11T04:48:42.527Z,294
2023-01-11T04:53:44.255Z,276.97297
2023-01-11T04:58:45.920Z,243.02913
2023-01-11T05:03:47.624Z,219
2023-01-11T05:08:49.519Z,203.91561
2023-01-11T05:13:51.147Z,238.73684
2023-01-11T05:18:52.752Z,259.89744
2023-01-11T05:23:54.481Z,259.89744
2023-01-11T05:28:56.377Z,329
2023-01-11T05:33:58.552Z,319.60976
2023-01-11T05:39:00.213Z,290.06742
2023-01-11T05:44:01.827Z,210.66667
2023-01-11T05:49:03.482Z,164.78853
2023-01-11T05:54:05.095Z,169.64103
2023-01-11T05:59:06.710Z,216.56637
2023-01-11T06:04:08.581Z,302.13953
2023-01-11T06:09:10.524Z,241.58454
2023-01-11T06:14:12.204Z,252
2023-01-11T06:19:14.088Z,214.17544
2023-01-11T06:24:15.906Z,177.33333
2023-01-11T06:29:17.530Z,164
2023-01-11T06:34:19.185Z,135.30435
2023-01-11T06:39:21.017Z,126.24852
2023-01-11T06:44:22.655Z,121.52161
2023-01-11T06:49:24.271Z,125.17647
2023-01-11T06:54:25.965Z,122.55072
2023-01-11T06:59:27.651Z,126.78932
2023-01-11T07:04:29.474Z,131.80488
2023-01-11T07:09:31.137Z,140.80511
2023-01-11T07:14:32.772Z,132.95706
2023-01-11T07:19:34.407Z,125.71091
2023-01-11T07:24:36.152Z,121.52161
2023-01-11T07:29:37.770Z,119.49858
2023-01-11T07:34:39.408Z,122.55072
2023-01-11T07:39:43.847Z,122.03468
2023-01-11T07:44:46.075Z,122.55072
2023-01-11T07:49:47.695Z,120
2023-01-11T07:54:49.347Z,116.54902
2023-01-11T07:59:51.075Z,123.59184
2023-01-11T08:04:52.673Z,128.98498
2023-01-11T08:09:54.338Z,134.12346
2023-01-11T08:14:56.211Z,134.12346
2023-01-11T08:19:57.833Z,165.58273
2023-01-11T08:24:59.479Z,144
2023-01-11T08:30:01.287Z,127.33333
2023-01-11T08:35:03.006Z,124.11696
2023-01-11T08:40:04.687Z,135.30435
2023-01-11T08:45:06.425Z,142.70968
2023-01-11T08:50:08.075Z,134.71207
2023-01-11T08:55:09.743Z,124.64516
2023-01-11T09:00:11.387Z,134.71207
2023-01-11T09:05:13.067Z,153.52381
2023-01-11T09:10:14.750Z,169.64103
2023-01-11T09:15:16.430Z,153.52381
2023-01-11T09:20:18.048Z,134.71207
2023-01-11T09:25:20.020Z,127.8806
2023-01-11T09:30:21.677Z,127.8806
2023-01-11T09:35:23.331Z,127.8806
2023-01-11T09:40:24.957Z,138.93671
2023-01-11T09:45:26.705Z,145.30719
2023-01-11T09:50:28.451Z,170.47059
2023-01-11T09:55:30.230Z,156.41379
2023-01-11T10:00:31.899Z,147.97351
2023-01-11T10:05:33.531Z,150.71141
2023-01-11T10:19:25.767Z,138.93671
2023-01-11T10:24:36.704Z,136.5
2023-01-11T10:29:38.385Z,142.70968
2023-01-11T10:34:40.090Z,160.14035
2023-01-11T10:39:41.944Z,138.32177
2023-01-11T10:44:43.601Z,137.71069
2023-01-11T10:49:45.444Z,140.80511
2023-01-11T10:54:47.773Z,142.07074
2023-01-11T10:59:50.960Z,136.5
2023-01-11T11:04:52.718Z,175.57895
2023-01-11T11:09:54.437Z,183.68872
2023-01-11T11:14:56.190Z,201.74059
2023-01-11T11:19:57.903Z,271.65957
2023-01-11T11:24:59.598Z,466.0339
2023-01-11T11:30:01.321Z,547.92157
2023-01-11T11:35:02.940Z,592.42105
2023-01-11T11:40:04.603Z,494
2023-01-11T11:45:06.316Z,421.51938
2023-01-11T11:50:07.936Z,233.20188
2023-01-11T11:55:09.582Z,255.11111
2023-01-11T12:00:11.541Z,250.46766
2023-01-11T12:05:13.220Z,194.4065
2023-01-11T12:10:15.103Z,182.75969
2023-01-11T12:15:16.742Z,377.80282
2023-01-11T12:20:18.426Z,1024.70175
2023-01-11T12:25:20.105Z,2313.23077
2023-01-11T12:30:21.791Z,1608.86486
2023-01-11T12:35:23.421Z,824
2023-01-11T12:40:25.154Z,988.0678
2023-01-11T12:45:27.007Z,498.95495
2023-01-11T12:50:28.620Z,475.03448
2023-01-11T12:55:30.779Z,542.05825
2023-01-11T13:00:32.395Z,509.13761
2023-01-11T13:05:34.087Z,849.88235
2023-01-11T13:10:35.839Z,560
2023-01-11T13:15:37.501Z,628.44444
2023-01-11T13:20:58.765Z,620.92308
2023-01-11T13:26:02.108Z,396.94118
2023-01-11T13:31:03.948Z,566.22222
2023-01-11T13:36:09.677Z,363.04762
2023-01-11T13:41:16.959Z,374.76923
2023-01-11T13:46:18.650Z,668.70588
2023-01-11T13:51:20.343Z,836.75362
2023-01-11T13:56:21.937Z,1410.66667
2023-01-11T14:01:23.607Z,836.75362
2023-01-11T14:06:25.243Z,765.33333
2023-01-11T14:11:27.057Z,606.36559
2023-01-11T14:16:28.685Z,326.6087
2023-01-11T14:21:30.302Z,216.56637
2023-01-11T14:26:32.033Z,173.85075
2023-01-11T14:31:33.704Z,220.23318
2023-01-11T14:36:35.396Z,444.81301
2023-01-11T14:41:37.025Z,1410.66667
2023-01-11T14:46:38.727Z,1755.76471
2023-01-11T14:51:40.395Z,2068.13793
2023-01-11T14:56:42.035Z,744
2023-01-11T15:01:43.963Z,276.97297
2023-01-11T15:06:45.601Z,224
2023-01-11T15:11:47.286Z,248.9505
2023-01-11T15:16:48.912Z,217.77778
2023-01-11T15:21:50.594Z,195.42857
2023-01-11T15:26:52.238Z,237.33333
2023-01-11T15:31:54.015Z,302.13953
2023-01-11T15:36:55.775Z,393.63504
2023-01-11T15:41:57.441Z,1064
2023-01-11T15:46:59.116Z,8744
2023-01-11T15:52:00.802Z,30744
2023-01-11T15:57:02.467Z,30744
2023-01-11T16:02:04.139Z,30744
2023-01-11T16:07:05.766Z,61544
2023-01-11T16:12:07.438Z,61544
2023-01-11T16:17:09.073Z,30744
2023-01-11T16:22:10.715Z,7644
2023-01-11T16:27:12.383Z,7644
2023-01-11T16:32:14.011Z,1755.76471
2023-01-11T16:37:15.645Z,599.31915
2023-01-11T16:42:17.319Z,553.90099
2023-01-11T16:47:19.062Z,599.31915
2023-01-11T16:52:20.715Z,484.35088
2023-01-11T16:57:22.443Z,475.03448
2023-01-11T17:02:24.106Z,566.22222
2023-01-11T17:07:25.784Z,799.55556
2023-01-11T17:12:27.479Z,1410.66667
2023-01-11T17:17:29.255Z,2313.23077
2023-01-11T17:22:30.989Z,2622.26087
2023-01-11T17:27:33.199Z,2225.48148
2023-01-11T17:32:34.845Z,3024
2023-01-11T17:37:36.494Z,2068.13793
2023-01-11T17:42:38.140Z,1283.13043
2023-01-11T17:47:39.749Z,2313.23077
2023-01-11T17:52:54.014Z,1755.76471
2023-01-11T17:57:56.300Z,2313.23077
2023-01-11T18:02:58.081Z,2744
2023-01-11T18:07:59.761Z,4682.46154
2023-01-11T18:13:01.446Z,7644
2023-01-11T18:18:03.114Z,8744
2023-01-11T18:23:05.426Z,61544
2023-01-11T18:28:07.188Z,61544
2023-01-11T18:33:08.995Z,61544
2023-01-11T18:38:10.641Z,61544
2023-01-11T18:43:12.311Z,61544
2023-01-11T18:48:14.001Z,61544
2023-01-11T18:53:15.609Z,15344
2023-01-11T18:58:17.204Z,20477.33333
2023-01-11T19:03:18.847Z,20477.33333
2023-01-11T19:08:20.450Z,5077.33333
2023-01-11T19:13:22.123Z,4344
2023-01-11T19:18:23.754Z,4682.46154
2023-01-11T19:23:25.400Z,2144
2023-01-11T19:28:27.173Z,2408
2023-01-11T19:33:28.828Z,1810.66667
2023-01-11T19:38:30.484Z,1565.05263
2023-01-11T19:43:32.169Z,906.5
2023-01-11T19:48:33.806Z,849.88235
2023-01-11T19:53:35.444Z,1376.55814
2023-01-11T19:58:37.105Z,1869
2023-01-11T20:03:38.712Z,2408
2023-01-11T20:08:40.340Z,5077.33333
2023-01-11T20:13:41.935Z,2877.33333
2023-01-11T20:18:43.571Z,2510.66667
2023-01-11T20:23:45.206Z,10210.66667
2023-01-11T20:28:46.840Z,7644
2023-01-11T20:33:48.481Z,2510.66667
2023-01-11T20:38:50.120Z,2225.48148
2023-01-11T20:43:51.768Z,5077.33333
2023-01-11T20:48:53.540Z,2313.23077
2023-01-11T20:53:55.415Z,3366.22222
2023-01-11T20:58:56.987Z,12264
2023-01-11T21:03:58.797Z,3794
2023-01-11T21:09:00.451Z,2744
2023-01-11T21:14:02.053Z,30744
2023-01-11T21:19:03.667Z,30744
2023-01-11T21:24:05.275Z,20477.33333
2023-01-11T21:29:06.941Z,8744
2023-01-11T21:34:08.541Z,15344
2023-01-11T21:39:10.183Z,15344
2023-01-11T21:44:11.848Z,15344
2023-01-11T21:49:13.520Z,10210.66667
2023-01-11T21:54:15.262Z,5544
2023-01-11T21:59:17.040Z,7644
2023-01-11T22:04:18.673Z,61544
2023-01-11T22:09:20.477Z,30744
2023-01-11T22:14:22.143Z,12264
2023-01-11T22:19:23.767Z,8744
2023-01-11T22:24:25.376Z,7644
2023-01-11T22:29:29.117Z,8744
2023-01-11T22:34:31.462Z,10210.66667
2023-01-11T22:39:33.062Z,20477.33333
2023-01-11T22:44:34.712Z,5077.33333
2023-01-11T22:49:36.287Z,1931.09677
2023-01-11T22:54:38.630Z,1312.88889
2023-01-11T22:59:40.403Z,1283.13043
2023-01-11T23:04:42.124Z,668.70588
2023-01-11T23:09:43.755Z,628.44444
2023-01-11T23:14:45.366Z,776.43243
2023-01-11T23:19:47.008Z,744
2023-01-11T23:24:48.639Z,652.04598
2023-01-11T23:29:50.268Z,294
2023-01-11T23:34:51.900Z,203.91561
2023-01-11T23:39:53.552Z,185.56863
2023-01-11T23:44:55.284Z,178.22053
2023-01-11T23:49:56.913Z,178.22053
2023-01-11T23:54:58.550Z,187.47826
